Time;durP1;ratioP1;P1;durP2;ratioP2;P2;SDS_P1;SDS_P2;PMS_P1;PMS_P2;Temp;Humidity;BMP_temperature;BMP_pressure;BME280_temperature;BME280_humidity;BME280_pressure;Samples;Min_cycle;Max_cycle;Signal;HPM_P1;HPM_P2
2021/08/24 00:02:41;;;;;;;5.25;3.58;;;;;;;;;;5049217;28;20822;-84
2021/08/24 00:05:29;;;;;;;6.35;4.03;;;;;;;;;;5048914;28;20102;-84
2021/08/24 00:08:14;;;;;;;5.95;4.30;;;;;;;;;;5049077;28;20628;-85
2021/08/24 00:10:59;;;;;;;4.80;3.85;;;;;;;;;;5048952;28;20067;-84
2021/08/24 00:13:44;;;;;;;5.57;3.90;;;;;;;;;;5048951;28;20116;-85
2021/08/24 00:16:28;;;;;;;5.97;3.63;;;;;;;;;;5034751;28;20036;-85
2021/08/24 00:19:13;;;;;;;5.45;4.03;;;;;;;;;;5034610;28;20048;-85
2021/08/24 00:21:58;;;;;;;5.13;3.83;;;;;;;;;;5048743;28;20098;-82
2021/08/24 00:24:42;;;;;;;5.13;3.72;;;;;;;;;;5048458;28;20878;-85
2021/08/24 00:27:27;;;;;;;5.22;3.60;;;;;;;;;;5048628;28;20121;-85
2021/08/24 00:30:12;;;;;;;5.20;3.65;;;;;;;;;;5048492;28;20047;-85
2021/08/24 00:32:57;;;;;;;6.05;4.03;;;;;;;;;;5048457;28;20048;-84
2021/08/24 00:35:42;;;;;;;5.65;3.83;;;;;;;;;;5049757;28;20466;-83
2021/08/24 00:38:27;;;;;;;5.90;3.42;;;;;;;;;;5048358;28;20048;-85
2021/08/24 00:41:11;;;;;;;4.88;3.63;;;;;;;;;;5048043;28;20076;-85
2021/08/24 00:43:56;;;;;;;4.35;3.40;;;;;;;;;;5049563;28;20040;-85
2021/08/24 00:46:41;;;;;;;5.07;3.38;;;;;;;;;;5049228;28;20059;-85
2021/08/24 00:49:26;;;;;;;4.95;3.42;;;;;;;;;;5049304;28;20083;-84
2021/08/24 00:52:11;;;;;;;5.50;3.92;;;;;;;;;;5048066;28;20128;-84
2021/08/24 00:54:56;;;;;;;4.97;3.47;;;;;;;;;;5047812;28;20036;-84
2021/08/24 00:57:41;;;;;;;4.70;3.10;;;;;;;;;;5047844;28;20072;-84
2021/08/24 01:00:27;;;;;;;5.25;3.40;;;;;;;;;;5047766;28;20591;-83
2021/08/24 01:03:16;;;;;;;5.22;3.53;;;;;;;;;;5049195;28;20047;-84
2021/08/24 01:06:03;;;;;;;4.78;3.33;;;;;;;;;;5047145;28;20147;-85
2021/08/24 01:08:50;;;;;;;5.20;3.40;;;;;;;;;;5047513;28;20132;-85
2021/08/24 01:11:38;;;;;;;5.65;3.65;;;;;;;;;;5048625;28;20048;-85
2021/08/24 01:14:43;;;;;;;4.70;3.25;;;;;;;;;;5048675;28;20550;-84
2021/08/24 01:17:38;;;;;;;5.45;3.90;;;;;;;;;;5033306;28;20118;-84
2021/08/24 01:20:28;;;;;;;5.10;3.70;;;;;;;;;;5047794;28;20075;-84
2021/08/24 01:23:33;;;;;;;5.35;3.33;;;;;;;;;;5047337;28;20067;-86
2021/08/24 01:26:30;;;;;;;5.72;3.30;;;;;;;;;;5046011;28;20064;-76
2021/08/24 01:29:41;;;;;;;4.72;3.22;;;;;;;;;;5048522;28;20110;-84
2021/08/24 01:32:35;;;;;;;5.38;3.63;;;;;;;;;;5037803;28;20090;-84
2021/08/24 01:35:21;;;;;;;3.95;3.10;;;;;;;;;;5048493;28;20111;-84
2021/08/24 01:38:19;;;;;;;4.63;3.25;;;;;;;;;;5047169;28;20044;-84
2021/08/24 01:41:28;;;;;;;4.45;3.17;;;;;;;;;;5032737;28;20090;-84
2021/08/24 01:44:15;;;;;;;4.05;3.38;;;;;;;;;;5047853;28;20095;-84
2021/08/24 01:47:19;;;;;;;4.22;3.00;;;;;;;;;;5046840;28;20525;-84
2021/08/24 01:50:11;;;;;;;4.78;3.42;;;;;;;;;;5047566;28;20091;-84
2021/08/24 01:52:57;;;;;;;4.65;2.92;;;;;;;;;;5035289;28;20462;-84
2021/08/24 01:56:02;;;;;;;4.47;3.10;;;;;;;;;;5049371;28;20063;-84
2021/08/24 01:58:51;;;;;;;4.93;3.05;;;;;;;;;;5049154;28;20167;-84
2021/08/24 02:01:38;;;;;;;4.00;3.10;;;;;;;;;;5049021;28;20044;-84
2021/08/24 02:04:25;;;;;;;4.15;2.92;;;;;;;;;;5049170;28;20039;-84
2021/08/24 02:07:10;;;;;;;3.80;2.88;;;;;;;;;;5050445;28;20146;-83
2021/08/24 02:09:55;;;;;;;3.90;2.88;;;;;;;;;;5049106;28;20094;-83
2021/08/24 02:12:40;;;;;;;4.20;2.88;;;;;;;;;;5029554;28;20040;-84
2021/08/24 02:15:32;;;;;;;4.30;2.92;;;;;;;;;;5034868;28;20055;-84
2021/08/24 02:18:18;;;;;;;5.78;3.40;;;;;;;;;;5048739;28;20044;-83
2021/08/24 02:21:07;;;;;;;4.05;3.13;;;;;;;;;;5049945;28;20051;-84
2021/08/24 02:23:52;;;;;;;4.28;2.75;;;;;;;;;;5049948;28;20075;-84
2021/08/24 02:26:36;;;;;;;3.92;2.90;;;;;;;;;;5049798;28;20183;-84
2021/08/24 02:29:21;;;;;;;4.28;2.92;;;;;;;;;;5048787;28;20043;-83
2021/08/24 02:32:07;;;;;;;4.45;2.97;;;;;;;;;;5049860;28;20106;-83
2021/08/24 02:34:54;;;;;;;6.05;3.30;;;;;;;;;;5034711;28;20036;-83
2021/08/24 02:37:43;;;;;;;4.00;2.80;;;;;;;;;;5049611;28;20525;-84
2021/08/24 02:40:46;;;;;;;5.20;3.60;;;;;;;;;;5049376;28;20039;-83
2021/08/24 02:43:35;;;;;;;4.05;2.90;;;;;;;;;;5049555;28;20499;-84
2021/08/24 02:46:20;;;;;;;3.72;2.80;;;;;;;;;;5034256;28;20105;-85
2021/08/24 02:49:07;;;;;;;3.70;2.95;;;;;;;;;;5034132;28;20116;-84
2021/08/24 02:51:52;;;;;;;3.45;2.60;;;;;;;;;;5034126;28;20052;-84
2021/08/24 02:54:40;;;;;;;3.50;2.72;;;;;;;;;;5048083;28;20044;-84
2021/08/24 02:57:25;;;;;;;3.45;2.72;;;;;;;;;;5048077;28;20101;-84
2021/08/24 03:00:10;;;;;;;3.78;2.78;;;;;;;;;;5047895;28;20570;-83
2021/08/24 03:02:55;;;;;;;3.83;2.55;;;;;;;;;;5049321;28;20085;-83
2021/08/24 03:05:39;;;;;;;3.67;2.75;;;;;;;;;;5049094;28;20083;-84
2021/08/24 03:08:24;;;;;;;3.72;2.80;;;;;;;;;;5049043;28;20039;-84
2021/08/24 03:11:09;;;;;;;3.80;2.88;;;;;;;;;;5049042;28;20063;-84
2021/08/24 03:14:11;;;;;;;4.07;3.03;;;;;;;;;;5048130;28;20072;-84
2021/08/24 03:16:58;;;;;;;3.55;2.75;;;;;;;;;;5033804;28;20505;-83
2021/08/24 03:19:42;;;;;;;3.90;2.80;;;;;;;;;;5033700;28;20051;-84
2021/08/24 03:22:27;;;;;;;3.58;2.58;;;;;;;;;;5033843;28;20048;-84
2021/08/24 03:25:12;;;;;;;3.78;2.67;;;;;;;;;;5033362;28;20650;-83
2021/08/24 03:27:57;;;;;;;3.70;2.78;;;;;;;;;;5033985;28;20043;-83
2021/08/24 03:30:41;;;;;;;3.83;2.70;;;;;;;;;;5054126;28;20040;-84
2021/08/24 03:33:26;;;;;;;3.58;2.58;;;;;;;;;;5040400;28;20082;-84
2021/08/24 03:36:10;;;;;;;5.75;2.80;;;;;;;;;;5054291;28;20055;-84
2021/08/24 03:38:55;;;;;;;4.18;2.80;;;;;;;;;;5054367;28;20044;-84
2021/08/24 03:41:40;;;;;;;3.25;2.45;;;;;;;;;;5054197;28;20533;-83
2021/08/24 03:44:25;;;;;;;4.47;2.80;;;;;;;;;;5054203;28;20082;-84
2021/08/24 03:47:11;;;;;;;3.40;2.53;;;;;;;;;;5054219;28;20048;-84
2021/08/24 03:49:55;;;;;;;3.78;2.85;;;;;;;;;;5038172;28;20048;-83
2021/08/24 03:52:40;;;;;;;3.75;2.80;;;;;;;;;;5040056;28;20047;-83
2021/08/24 03:55:24;;;;;;;3.85;2.63;;;;;;;;;;5054360;28;20052;-84
2021/08/24 03:58:09;;;;;;;3.38;2.33;;;;;;;;;;5053991;28;20082;-84
2021/08/24 04:00:53;;;;;;;3.20;2.40;;;;;;;;;;5055193;28;20040;-84
2021/08/24 04:03:38;;;;;;;3.78;2.70;;;;;;;;;;5055373;28;20048;-83
2021/08/24 04:06:22;;;;;;;3.13;2.33;;;;;;;;;;5055113;28;20056;-84
2021/08/24 04:09:07;;;;;;;3.53;2.60;;;;;;;;;;5055352;28;20040;-84
2021/08/24 04:11:52;;;;;;;4.68;2.53;;;;;;;;;;5055732;28;20035;-83
2021/08/24 04:14:37;;;;;;;3.67;2.80;;;;;;;;;;5040326;28;20497;-83
2021/08/24 04:17:21;;;;;;;3.83;2.55;;;;;;;;;;5040155;28;20157;-84
2021/08/24 04:20:07;;;;;;;3.80;2.50;;;;;;;;;;5039960;28;20124;-83
2021/08/24 04:22:52;;;;;;;3.85;2.58;;;;;;;;;;5054231;28;20044;-82
2021/08/24 04:25:36;;;;;;;3.20;2.30;;;;;;;;;;5053891;28;20073;-84
2021/08/24 04:28:21;;;;;;;3.45;2.55;;;;;;;;;;5054039;28;20044;-83
2021/08/24 04:31:06;;;;;;;4.03;2.63;;;;;;;;;;5053747;28;20048;-84
2021/08/24 04:33:51;;;;;;;3.28;2.47;;;;;;;;;;5053572;28;20040;-83
2021/08/24 04:36:35;;;;;;;3.42;2.47;;;;;;;;;;5039687;28;20039;-82
2021/08/24 04:39:20;;;;;;;3.70;2.35;;;;;;;;;;5053838;28;20043;-84
2021/08/24 04:42:04;;;;;;;3.85;2.50;;;;;;;;;;5035840;28;20035;-84
2021/08/24 04:44:49;;;;;;;4.10;2.88;;;;;;;;;;5036602;28;20047;-84
2021/08/24 04:47:33;;;;;;;3.08;2.42;;;;;;;;;;5036443;28;20175;-83
2021/08/24 04:50:19;;;;;;;4.22;2.83;;;;;;;;;;5047821;28;20093;-83
2021/08/24 04:53:04;;;;;;;5.55;3.03;;;;;;;;;;5047425;28;20567;-83
2021/08/24 04:55:48;;;;;;;3.30;2.67;;;;;;;;;;5049253;28;20039;-84
2021/08/24 04:58:33;;;;;;;4.53;3.13;;;;;;;;;;5047990;28;20520;-84
2021/08/24 05:01:18;;;;;;;3.78;2.60;;;;;;;;;;5048902;28;20044;-84
2021/08/24 05:04:03;;;;;;;3.38;2.53;;;;;;;;;;5047944;28;20563;-84
2021/08/24 05:06:48;;;;;;;4.10;2.53;;;;;;;;;;5048110;28;20051;-84
2021/08/24 05:09:32;;;;;;;3.97;2.85;;;;;;;;;;5047737;28;20039;-85
2021/08/24 05:12:17;;;;;;;3.45;2.60;;;;;;;;;;5048141;28;20040;-84
2021/08/24 05:15:01;;;;;;;2.85;2.30;;;;;;;;;;5033751;28;20044;-81
2021/08/24 05:17:49;;;;;;;2.85;2.10;;;;;;;;;;5047951;28;20422;-84
2021/08/24 05:20:34;;;;;;;4.28;2.88;;;;;;;;;;5047455;28;20463;-84
2021/08/24 05:23:18;;;;;;;3.50;2.58;;;;;;;;;;5049136;28;20069;-83
2021/08/24 05:26:10;;;;;;;3.40;2.50;;;;;;;;;;5047689;28;20091;-84
2021/08/24 05:28:55;;;;;;;4.20;2.72;;;;;;;;;;5047162;28;20067;-83
2021/08/24 05:31:39;;;;;;;4.63;2.72;;;;;;;;;;5047601;28;20790;-83
2021/08/24 05:34:23;;;;;;;3.92;2.60;;;;;;;;;;5047413;28;20040;-83
2021/08/24 05:37:08;;;;;;;3.83;2.72;;;;;;;;;;5048614;28;20075;-84
2021/08/24 05:39:53;;;;;;;3.65;2.80;;;;;;;;;;5048728;28;20552;-83
2021/08/24 05:42:37;;;;;;;4.38;2.78;;;;;;;;;;5048105;28;20446;-83
2021/08/24 05:45:22;;;;;;;3.58;2.50;;;;;;;;;;5047491;28;20401;-84
2021/08/24 05:48:06;;;;;;;3.35;2.50;;;;;;;;;;5047244;28;20070;-84
2021/08/24 05:50:51;;;;;;;3.78;2.60;;;;;;;;;;5048329;28;20083;-84
2021/08/24 05:53:35;;;;;;;3.50;2.33;;;;;;;;;;5047009;28;20091;-82
2021/08/24 05:56:21;;;;;;;3.95;2.70;;;;;;;;;;5033150;28;20508;-83
2021/08/24 05:59:05;;;;;;;3.90;2.70;;;;;;;;;;5047285;28;20664;-84
2021/08/24 06:01:50;;;;;;;4.22;2.60;;;;;;;;;;5047437;28;20040;-84
2021/08/24 06:04:35;;;;;;;4.22;2.75;;;;;;;;;;5033223;28;20039;-81
2021/08/24 06:07:20;;;;;;;4.72;2.88;;;;;;;;;;5047276;28;20102;-83
2021/08/24 06:10:05;;;;;;;4.82;2.85;;;;;;;;;;5048228;28;20536;-84
2021/08/24 06:12:50;;;;;;;4.40;2.78;;;;;;;;;;5046926;28;20048;-84
2021/08/24 06:15:35;;;;;;;5.97;3.20;;;;;;;;;;5046921;28;20047;-84
2021/08/24 06:18:19;;;;;;;4.85;2.95;;;;;;;;;;5046609;28;20051;-84
2021/08/24 06:21:04;;;;;;;5.15;2.97;;;;;;;;;;5032493;28;20131;-84
2021/08/24 06:23:49;;;;;;;3.63;2.72;;;;;;;;;;5046692;28;20090;-84
2021/08/24 06:26:34;;;;;;;4.88;2.80;;;;;;;;;;5046276;28;20122;-84
2021/08/24 06:29:18;;;;;;;3.92;2.65;;;;;;;;;;5032374;28;20070;-85
2021/08/24 06:32:05;;;;;;;5.75;3.05;;;;;;;;;;5032645;28;20052;-84
2021/08/24 06:34:50;;;;;;;5.05;2.85;;;;;;;;;;5046321;28;20636;-85
2021/08/24 06:37:34;;;;;;;4.68;2.47;;;;;;;;;;5032219;28;20111;-85
2021/08/24 06:40:18;;;;;;;4.35;2.80;;;;;;;;;;5032099;28;20083;-85
2021/08/24 06:43:03;;;;;;;4.88;2.75;;;;;;;;;;5031902;28;20122;-84
2021/08/24 06:45:48;;;;;;;5.97;3.42;;;;;;;;;;5032113;28;20099;-84
2021/08/24 06:48:33;;;;;;;5.20;2.70;;;;;;;;;;5045994;28;20071;-84
2021/08/24 06:51:18;;;;;;;4.85;2.67;;;;;;;;;;5045628;28;20043;-84
2021/08/24 06:54:03;;;;;;;5.57;2.97;;;;;;;;;;5031951;28;20102;-85
2021/08/24 06:56:48;;;;;;;5.65;3.33;;;;;;;;;;5045925;28;20511;-84
2021/08/24 06:59:36;;;;;;;5.15;3.25;;;;;;;;;;5045456;28;20036;-84
2021/08/24 07:02:21;;;;;;;5.20;3.00;;;;;;;;;;5031354;28;20052;-84
2021/08/24 07:05:05;;;;;;;4.90;2.83;;;;;;;;;;5031461;28;20118;-85
2021/08/24 07:07:50;;;;;;;7.63;3.45;;;;;;;;;;5045653;28;20078;-85
2021/08/24 07:10:35;;;;;;;6.20;3.60;;;;;;;;;;5032308;28;20632;-85
2021/08/24 07:13:19;;;;;;;8.70;3.75;;;;;;;;;;5047096;28;20132;-84
2021/08/24 07:16:05;;;;;;;6.25;3.50;;;;;;;;;;5045852;28;20052;-84
2021/08/24 07:18:59;;;;;;;6.85;3.55;;;;;;;;;;5046260;28;20060;-84
2021/08/24 07:21:43;;;;;;;7.70;4.10;;;;;;;;;;5047407;28;20040;-84
2021/08/24 07:24:28;;;;;;;6.47;3.80;;;;;;;;;;5045748;28;20040;-84
2021/08/24 07:27:12;;;;;;;5.30;3.47;;;;;;;;;;5047330;28;20044;-84
2021/08/24 07:29:57;;;;;;;5.13;3.15;;;;;;;;;;5032153;28;20044;-83
2021/08/24 07:32:41;;;;;;;5.32;2.95;;;;;;;;;;5047081;28;20040;-84
2021/08/24 07:35:26;;;;;;;4.97;3.42;;;;;;;;;;5047707;28;20087;-85
2021/08/24 07:38:11;;;;;;;7.95;4.10;;;;;;;;;;5047178;28;20140;-85
2021/08/24 07:40:55;;;;;;;6.60;3.75;;;;;;;;;;5045959;28;20081;-84
2021/08/24 07:43:40;;;;;;;5.85;3.50;;;;;;;;;;5046250;28;20043;-84
2021/08/24 07:46:24;;;;;;;7.28;3.58;;;;;;;;;;5045612;28;20047;-85
2021/08/24 07:49:09;;;;;;;5.75;3.22;;;;;;;;;;5046648;28;20448;-81
2021/08/24 07:51:56;;;;;;;7.97;4.50;;;;;;;;;;5045754;28;20047;-84
2021/08/24 07:54:41;;;;;;;11.20;4.10;;;;;;;;;;5045817;28;20036;-86
2021/08/24 07:57:26;;;;;;;6.93;3.90;;;;;;;;;;5045725;28;20082;-85
2021/08/24 08:00:10;;;;;;;6.03;3.80;;;;;;;;;;5045698;28;20032;-84
2021/08/24 08:02:55;;;;;;;4.97;3.25;;;;;;;;;;5047185;28;20513;-85
2021/08/24 08:05:40;;;;;;;5.20;3.60;;;;;;;;;;5045461;28;20055;-84
2021/08/24 08:08:25;;;;;;;6.50;3.75;;;;;;;;;;5046526;28;20064;-84
2021/08/24 08:11:09;;;;;;;6.93;3.90;;;;;;;;;;5046541;28;20082;-85
2021/08/24 08:13:54;;;;;;;6.05;3.67;;;;;;;;;;5045775;28;20055;-86
2021/08/24 08:16:39;;;;;;;5.68;3.97;;;;;;;;;;5049332;28;20091;-85
2021/08/24 08:19:23;;;;;;;6.28;3.83;;;;;;;;;;5050304;28;20174;-84
2021/08/24 08:22:08;;;;;;;5.22;3.30;;;;;;;;;;5049012;28;20684;-84
2021/08/24 08:24:52;;;;;;;5.82;3.78;;;;;;;;;;5048871;28;20587;-85
2021/08/24 08:27:37;;;;;;;8.00;4.25;;;;;;;;;;5049954;28;20048;-81
2021/08/24 08:30:22;;;;;;;6.47;3.75;;;;;;;;;;5048503;28;20039;-85
2021/08/24 08:33:06;;;;;;;6.45;4.15;;;;;;;;;;5048900;28;20047;-86
2021/08/24 08:35:51;;;;;;;6.30;3.92;;;;;;;;;;5034532;28;20044;-86
2021/08/24 08:38:36;;;;;;;6.63;4.25;;;;;;;;;;5049871;28;20056;-85
2021/08/24 08:41:39;;;;;;;6.03;4.07;;;;;;;;;;5048946;28;20090;-86
2021/08/24 08:44:36;;;;;;;4.97;3.30;;;;;;;;;;5049368;28;20044;-84
2021/08/24 08:47:24;;;;;;;5.15;3.25;;;;;;;;;;5049355;28;20056;-77
2021/08/24 08:50:38;;;;;;;5.30;3.38;;;;;;;;;;5049493;28;20588;-85
2021/08/24 08:53:45;;;;;;;4.72;3.20;;;;;;;;;;5045758;28;20051;-85
2021/08/24 08:56:32;;;;;;;4.38;3.17;;;;;;;;;;5049240;28;20044;-85
2021/08/24 08:59:18;;;;;;;4.15;3.03;;;;;;;;;;5048921;28;20212;-79
2021/08/24 09:02:18;;;;;;;5.07;3.20;;;;;;;;;;5047877;28;20505;-85
2021/08/24 09:05:03;;;;;;;4.47;3.17;;;;;;;;;;5047560;28;20124;-85
2021/08/24 09:07:50;;;;;;;5.47;3.05;;;;;;;;;;5033391;28;20106;-85
2021/08/24 09:10:42;;;;;;;4.32;3.25;;;;;;;;;;5048611;28;20067;-85
2021/08/24 09:13:31;;;;;;;4.30;3.17;;;;;;;;;;5048127;28;20520;-84
2021/08/24 09:16:32;;;;;;;4.80;3.20;;;;;;;;;;5047459;28;20406;-85
2021/08/24 09:19:18;;;;;;;5.75;3.40;;;;;;;;;;5047234;28;20054;-85
2021/08/24 09:22:03;;;;;;;5.05;3.45;;;;;;;;;;5047358;28;20584;-86
2021/08/24 09:24:48;;;;;;;4.80;3.58;;;;;;;;;;5047099;28;20047;-84
2021/08/24 09:27:36;;;;;;;4.38;3.22;;;;;;;;;;5046097;28;20114;-82
2021/08/24 09:30:21;;;;;;;4.80;3.35;;;;;;;;;;5048001;28;20044;-83
2021/08/24 09:33:06;;;;;;;4.55;3.20;;;;;;;;;;5033461;28;20517;-86
2021/08/24 09:35:51;;;;;;;4.20;3.08;;;;;;;;;;5047015;28;20626;-86
2021/08/24 09:38:45;;;;;;;3.90;3.05;;;;;;;;;;5033361;28;20417;-86
2021/08/24 09:41:33;;;;;;;5.53;3.80;;;;;;;;;;5046848;28;20106;-86
2021/08/24 09:44:26;;;;;;;5.43;3.25;;;;;;;;;;5046849;28;20043;-87
2021/08/24 09:47:17;;;;;;;4.85;3.50;;;;;;;;;;5047279;28;20163;-86
2021/08/24 09:50:09;;;;;;;5.18;3.50;;;;;;;;;;5047793;28;20079;-85
2021/08/24 09:52:54;;;;;;;4.63;3.70;;;;;;;;;;5047114;28;20128;-86
2021/08/24 09:55:45;;;;;;;5.70;3.80;;;;;;;;;;5046726;28;20144;-82
2021/08/24 09:58:31;;;;;;;6.25;3.38;;;;;;;;;;5047976;28;20032;-86
2021/08/24 10:01:16;;;;;;;4.82;3.60;;;;;;;;;;5046689;28;20052;-86
2021/08/24 10:04:05;;;;;;;4.10;3.33;;;;;;;;;;5046822;28;20052;-85
2021/08/24 10:06:58;;;;;;;4.55;3.20;;;;;;;;;;5046382;28;20043;-85
2021/08/24 10:09:43;;;;;;;5.10;3.63;;;;;;;;;;5046347;28;20695;-86
2021/08/24 10:12:28;;;;;;;4.53;3.58;;;;;;;;;;5046846;28;20047;-84
2021/08/24 10:15:21;;;;;;;4.00;3.08;;;;;;;;;;5046157;28;20047;-86
2021/08/24 10:18:22;;;;;;;4.60;3.28;;;;;;;;;;5046360;28;20091;-86
2021/08/24 10:21:10;;;;;;;4.72;3.50;;;;;;;;;;5046318;28;20043;-86
2021/08/24 10:23:58;;;;;;;4.30;3.33;;;;;;;;;;5045909;28;20079;-84
2021/08/24 10:26:43;;;;;;;4.85;3.45;;;;;;;;;;5046825;28;20055;-85
2021/08/24 10:29:29;;;;;;;4.40;3.45;;;;;;;;;;5047107;28;20039;-85
2021/08/24 10:32:14;;;;;;;4.95;3.30;;;;;;;;;;5045822;28;20504;-80
2021/08/24 10:34:59;;;;;;;3.80;3.30;;;;;;;;;;5045593;28;20132;-85
2021/08/24 10:37:46;;;;;;;4.43;3.67;;;;;;;;;;5045240;28;20421;-85
2021/08/24 10:40:39;;;;;;;4.28;3.42;;;;;;;;;;5045442;28;20768;-84
2021/08/24 10:43:23;;;;;;;4.28;3.40;;;;;;;;;;5045711;28;20044;-84
2021/08/24 10:46:13;;;;;;;4.85;3.60;;;;;;;;;;5045557;28;20134;-83
2021/08/24 10:48:58;;;;;;;4.25;3.47;;;;;;;;;;5045556;28;20044;-75
2021/08/24 10:51:47;;;;;;;4.10;3.50;;;;;;;;;;5046845;28;20047;-84
2021/08/24 10:54:34;;;;;;;5.00;3.72;;;;;;;;;;5045680;28;20048;-84
2021/08/24 10:57:25;;;;;;;3.90;3.28;;;;;;;;;;5045797;28;20044;-84
2021/08/24 11:00:22;;;;;;;4.43;3.50;;;;;;;;;;5046585;28;20102;-84
2021/08/24 11:03:25;;;;;;;4.75;3.80;;;;;;;;;;5046721;28;20044;-84
2021/08/24 11:06:22;;;;;;;5.28;3.63;;;;;;;;;;5046557;28;20812;-84
2021/08/24 11:09:09;;;;;;;4.38;3.45;;;;;;;;;;5046399;28;20513;-83
2021/08/24 11:11:54;;;;;;;4.07;3.67;;;;;;;;;;5045303;28;20464;-83
2021/08/24 11:14:57;;;;;;;5.03;3.40;;;;;;;;;;5045035;28;20047;-80
2021/08/24 11:17:45;;;;;;;4.35;3.78;;;;;;;;;;5046358;28;20035;-84
2021/08/24 11:20:35;;;;;;;5.10;3.72;;;;;;;;;;5045387;28;20094;-83
2021/08/24 11:23:38;;;;;;;4.38;3.72;;;;;;;;;;5045275;28;20095;-83
2021/08/24 11:26:38;;;;;;;5.55;3.78;;;;;;;;;;5046269;28;20516;-83
2021/08/24 11:29:42;;;;;;;4.80;3.95;;;;;;;;;;5045164;28;20079;-83
2021/08/24 11:32:35;;;;;;;4.35;3.20;;;;;;;;;;5046175;28;20636;-83
2021/08/24 11:35:49;;;;;;;4.30;3.70;;;;;;;;;;5044907;28;20064;-82
2021/08/24 11:38:35;;;;;;;4.20;3.53;;;;;;;;;;4999243;28;20106;-82
2021/08/24 11:41:21;;;;;;;4.20;3.72;;;;;;;;;;5045298;28;20091;-82
2021/08/24 11:44:06;;;;;;;4.40;3.90;;;;;;;;;;5045144;28;20047;-82
2021/08/24 11:46:55;;;;;;;3.92;3.35;;;;;;;;;;5044833;28;20091;-83
2021/08/24 11:49:39;;;;;;;4.15;3.75;;;;;;;;;;5045329;28;20036;-82
2021/08/24 11:52:29;;;;;;;5.50;3.97;;;;;;;;;;5049988;28;20048;-82
2021/08/24 11:55:22;;;;;;;5.35;3.75;;;;;;;;;;5048703;28;20094;-81
2021/08/24 11:58:07;;;;;;;4.40;3.47;;;;;;;;;;5048758;28;20052;-82
2021/08/24 12:00:55;;;;;;;5.70;3.60;;;;;;;;;;5049713;28;20043;-82
2021/08/24 12:03:42;;;;;;;4.50;3.40;;;;;;;;;;5034762;28;20118;-83
2021/08/24 12:06:31;;;;;;;4.85;3.70;;;;;;;;;;5048572;28;20608;-82
2021/08/24 12:09:18;;;;;;;4.22;3.70;;;;;;;;;;5034436;28;20416;-82
2021/08/24 12:12:02;;;;;;;4.40;3.50;;;;;;;;;;5048428;28;20489;-82
2021/08/24 12:15:00;;;;;;;4.45;3.70;;;;;;;;;;5034244;28;20089;-82
2021/08/24 12:17:45;;;;;;;5.10;3.83;;;;;;;;;;5048246;28;20047;-82
2021/08/24 12:20:31;;;;;;;4.43;4.03;;;;;;;;;;5034130;28;20036;-77
2021/08/24 12:23:35;;;;;;;4.15;3.70;;;;;;;;;;5048391;28;20508;-82
2021/08/24 12:26:20;;;;;;;4.25;3.72;;;;;;;;;;5049164;28;20524;-83
2021/08/24 12:29:07;;;;;;;4.70;3.70;;;;;;;;;;5049128;28;20393;-81
2021/08/24 12:31:53;;;;;;;4.35;3.75;;;;;;;;;;5048246;28;20039;-82
2021/08/24 12:34:41;;;;;;;4.10;3.70;;;;;;;;;;5048046;28;20509;-82
2021/08/24 12:37:28;;;;;;;5.50;4.22;;;;;;;;;;5049033;28;20110;-82
2021/08/24 12:40:13;;;;;;;4.05;3.55;;;;;;;;;;5047815;28;20805;-82
2021/08/24 12:43:02;;;;;;;4.03;3.63;;;;;;;;;;5048008;28;20048;-82
2021/08/24 12:45:46;;;;;;;4.20;3.40;;;;;;;;;;5048870;28;20043;-82
2021/08/24 12:48:31;;;;;;;3.60;3.30;;;;;;;;;;5047618;28;20418;-81
2021/08/24 12:51:17;;;;;;;4.00;3.60;;;;;;;;;;5049086;28;20091;-82
2021/08/24 12:54:02;;;;;;;4.18;3.70;;;;;;;;;;5047690;28;20087;-81
2021/08/24 12:56:48;;;;;;;4.13;3.67;;;;;;;;;;5047442;28;20039;-81
2021/08/24 12:59:34;;;;;;;4.05;3.65;;;;;;;;;;5047512;28;20561;-80
2021/08/24 13:02:34;;;;;;;4.47;3.78;;;;;;;;;;5046411;28;20048;-81
2021/08/24 13:05:21;;;;;;;4.30;3.55;;;;;;;;;;5047397;28;20055;-80
2021/08/24 13:08:11;;;;;;;4.57;3.45;;;;;;;;;;5047603;28;20079;-81
2021/08/24 13:10:57;;;;;;;4.43;3.92;;;;;;;;;;5048160;28;20039;-81
2021/08/24 13:13:41;;;;;;;5.28;3.60;;;;;;;;;;5033970;28;20048;-80
2021/08/24 13:16:27;;;;;;;4.22;3.83;;;;;;;;;;5049205;28;20079;-81
2021/08/24 13:19:16;;;;;;;3.90;3.47;;;;;;;;;;5048839;28;20067;-81
2021/08/24 13:22:01;;;;;;;4.65;3.20;;;;;;;;;;5049784;28;20043;-80
2021/08/24 13:24:47;;;;;;;3.83;3.30;;;;;;;;;;5056519;28;20039;-80
2021/08/24 13:27:35;;;;;;;4.25;3.40;;;;;;;;;;5068387;28;20098;-80
2021/08/24 13:30:27;;;;;;;3.67;3.30;;;;;;;;;;5053871;28;20067;-80
2021/08/24 13:33:14;;;;;;;4.18;3.78;;;;;;;;;;5047920;28;20569;-77
2021/08/24 13:36:00;;;;;;;4.10;3.60;;;;;;;;;;5048588;28;20468;-80
2021/08/24 13:38:45;;;;;;;4.40;3.58;;;;;;;;;;5046839;28;20044;-81
2021/08/24 13:41:35;;;;;;;3.83;3.42;;;;;;;;;;5047110;28;20048;-80
2021/08/24 13:44:27;;;;;;;4.20;3.63;;;;;;;;;;5030712;28;20098;-80
2021/08/24 13:47:22;;;;;;;3.75;3.35;;;;;;;;;;5047863;28;20055;-80
2021/08/24 13:50:07;;;;;;;4.10;3.70;;;;;;;;;;5046399;28;20047;-80
2021/08/24 13:52:58;;;;;;;4.38;3.75;;;;;;;;;;5046614;28;20040;-80
2021/08/24 13:55:43;;;;;;;4.00;3.50;;;;;;;;;;5032622;28;20115;-80
2021/08/24 13:58:27;;;;;;;3.42;3.13;;;;;;;;;;5046438;28;20051;-80
2021/08/24 14:01:15;;;;;;;3.75;3.38;;;;;;;;;;5047332;28;20051;-80
2021/08/24 14:04:01;;;;;;;3.88;3.47;;;;;;;;;;5047662;28;20544;-80
2021/08/24 14:06:52;;;;;;;3.55;3.25;;;;;;;;;;5047285;28;20160;-81
2021/08/24 14:10:09;;;;;;;5.60;3.60;;;;;;;;;;5047657;28;20524;-80
2021/08/24 14:12:54;;;;;;;3.40;3.10;;;;;;;;;;5021059;28;20064;-78
2021/08/24 14:15:39;;;;;;;3.75;3.38;;;;;;;;;;5046729;28;20142;-81
2021/08/24 14:18:30;;;;;;;3.83;3.25;;;;;;;;;;5046848;28;20052;-80
2021/08/24 14:21:15;;;;;;;4.18;3.33;;;;;;;;;;5045649;28;20150;-81
2021/08/24 14:24:02;;;;;;;4.10;3.60;;;;;;;;;;5045579;28;20573;-81
2021/08/24 14:26:48;;;;;;;4.00;3.60;;;;;;;;;;5046407;28;20055;-80
2021/08/24 14:29:34;;;;;;;4.32;3.60;;;;;;;;;;5045376;28;20051;-80
2021/08/24 14:32:32;;;;;;;4.22;3.70;;;;;;;;;;5045305;28;20193;-80
2021/08/24 14:35:36;;;;;;;3.50;3.20;;;;;;;;;;5045272;28;20090;-81
2021/08/24 14:38:45;;;;;;;3.80;3.40;;;;;;;;;;5046477;28;20087;-79
2021/08/24 14:41:30;;;;;;;4.70;3.47;;;;;;;;;;5046544;28;20540;-81
2021/08/24 14:44:16;;;;;;;3.55;3.20;;;;;;;;;;5045070;28;20044;-81
2021/08/24 14:47:01;;;;;;;3.67;3.30;;;;;;;;;;5045001;28;20132;-80
2021/08/24 14:49:47;;;;;;;3.83;3.40;;;;;;;;;;5046242;28;20707;-80
2021/08/24 14:52:33;;;;;;;3.78;3.05;;;;;;;;;;5046312;28;20508;-80
2021/08/24 14:55:19;;;;;;;3.28;2.97;;;;;;;;;;5046189;28;20056;-81
2021/08/24 14:58:15;;;;;;;3.67;3.20;;;;;;;;;;5046035;28;20101;-81
2021/08/24 15:01:16;;;;;;;4.70;3.35;;;;;;;;;;5045072;28;20086;-81
2021/08/24 15:04:08;;;;;;;4.35;3.42;;;;;;;;;;5046019;28;20128;-80
2021/08/24 15:07:02;;;;;;;3.75;3.45;;;;;;;;;;5045771;28;20126;-80
2021/08/24 15:09:51;;;;;;;3.50;3.20;;;;;;;;;;5044857;28;20056;-80
2021/08/24 15:12:36;;;;;;;3.60;3.30;;;;;;;;;;5044698;28;20120;-81
2021/08/24 15:15:27;;;;;;;3.40;3.10;;;;;;;;;;5044731;28;20094;-81
2021/08/24 15:18:11;;;;;;;3.85;3.10;;;;;;;;;;5044821;28;20122;-81
2021/08/24 15:20:57;;;;;;;3.70;3.25;;;;;;;;;;5045912;28;20630;-82
2021/08/24 15:23:41;;;;;;;3.65;3.35;;;;;;;;;;5044594;28;20177;-81
2021/08/24 15:26:26;;;;;;;4.03;3.53;;;;;;;;;;5045690;28;20098;-81
2021/08/24 15:29:14;;;;;;;3.58;2.95;;;;;;;;;;5046074;28;20413;-81
2021/08/24 15:32:22;;;;;;;3.88;3.15;;;;;;;;;;5045861;28;20047;-80
2021/08/24 15:35:11;;;;;;;4.50;3.17;;;;;;;;;;5045807;28;20047;-81
2021/08/24 15:38:00;;;;;;;3.25;2.92;;;;;;;;;;5044827;28;20044;-81
2021/08/24 15:40:46;;;;;;;4.13;3.10;;;;;;;;;;5044861;28;20118;-80
2021/08/24 15:43:34;;;;;;;3.92;3.10;;;;;;;;;;5044282;28;20452;-81
2021/08/24 15:46:20;;;;;;;3.30;3.00;;;;;;;;;;5044720;28;20056;-81
2021/08/24 15:49:05;;;;;;;3.83;3.20;;;;;;;;;;5044642;28;20086;-81
2021/08/24 15:51:51;;;;;;;3.83;3.10;;;;;;;;;;5044866;28;20048;-81
2021/08/24 15:54:37;;;;;;;3.70;3.05;;;;;;;;;;5044832;28;20044;-81
2021/08/24 15:57:22;;;;;;;3.72;3.03;;;;;;;;;;5044762;28;20098;-81
2021/08/24 16:00:07;;;;;;;3.47;3.17;;;;;;;;;;5044599;28;20043;-81
2021/08/24 16:02:52;;;;;;;3.92;3.42;;;;;;;;;;5044593;28;20068;-81
2021/08/24 16:05:36;;;;;;;3.92;3.53;;;;;;;;;;5030243;28;20052;-81
2021/08/24 16:08:21;;;;;;;3.92;3.00;;;;;;;;;;5044752;28;20059;-82
2021/08/24 16:11:06;;;;;;;3.45;3.10;;;;;;;;;;5030530;28;20146;-82
2021/08/24 16:13:51;;;;;;;4.10;3.20;;;;;;;;;;5030281;28;20052;-82
2021/08/24 16:16:36;;;;;;;4.53;3.40;;;;;;;;;;5045143;28;20032;-82
2021/08/24 16:19:22;;;;;;;3.70;3.25;;;;;;;;;;5045657;28;20537;-82
2021/08/24 16:22:24;;;;;;;4.15;3.53;;;;;;;;;;5045603;28;20123;-82
2021/08/24 16:25:10;;;;;;;3.67;3.37;;;;;;;;;;5044167;28;20047;-82
2021/08/24 16:27:55;;;;;;;4.07;3.63;;;;;;;;;;5044467;28;20072;-76
2021/08/24 16:30:40;;;;;;;3.92;3.35;;;;;;;;;;5044414;28;20515;-83
2021/08/24 16:33:24;;;;;;;5.30;3.33;;;;;;;;;;5045567;28;20087;-82
2021/08/24 16:36:12;;;;;;;4.05;3.30;;;;;;;;;;5031668;28;20044;-77
2021/08/24 16:38:57;;;;;;;4.50;3.50;;;;;;;;;;5047940;28;20043;-83
2021/08/24 16:41:42;;;;;;;4.35;3.53;;;;;;;;;;5047984;28;20044;-82
2021/08/24 16:44:26;;;;;;;4.40;3.63;;;;;;;;;;5047915;28;20402;-83
2021/08/24 16:47:11;;;;;;;4.68;3.60;;;;;;;;;;5047682;28;20064;-81